Time;durP1;ratioP1;P1;durP2;ratioP2;P2;SDS_P1;SDS_P2;PMS_P1;PMS_P2;Temp;Humidity;BMP_temperature;BMP_pressure;BME280_temperature;BME280_humidity;BME280_pressure;Samples;Min_cycle;Max_cycle;Signal;HPM_P1;HPM_P2
2022/02/06 00:00:15;;;;;;;11.35;8.45;;;9.20;96.70;;;;;;4983731;28;20049;-78
2022/02/06 00:02:47;;;;;;;17.25;9.32;;;9.20;96.70;;;;;;4983121;28;20038;-78
2022/02/06 00:05:16;;;;;;;13.80;9.45;;;9.10;96.70;;;;;;4987567;28;20441;-79
2022/02/06 00:07:47;;;;;;;12.48;8.82;;;9.10;96.70;;;;;;4984850;28;20042;-78
2022/02/06 00:10:16;;;;;;;12.13;8.88;;;9.10;96.70;;;;;;4982167;28;20046;-78
2022/02/06 00:12:44;;;;;;;14.23;9.00;;;9.20;96.70;;;;;;4983265;28;20061;-78
2022/02/06 00:15:13;;;;;;;13.23;8.93;;;9.20;96.70;;;;;;4981498;28;20069;-78
2022/02/06 00:17:41;;;;;;;14.00;9.30;;;9.10;96.70;;;;;;4980292;28;20045;-78
2022/02/06 00:20:10;;;;;;;14.57;8.82;;;9.00;96.70;;;;;;4986185;28;20410;-79
2022/02/06 00:22:48;;;;;;;10.57;8.25;;;9.00;96.70;;;;;;4996461;28;20512;-79
2022/02/06 00:33:07;;;;;;;12.43;7.38;;;9.00;96.70;;;;;;5002400;28;20041;-78
2022/02/06 00:38:27;;;;;;;12.32;8.13;;;8.90;96.70;;;;;;4982976;28;20144;-78
2022/02/06 00:41:32;;;;;;;11.48;8.68;;;8.90;96.70;;;;;;4980147;28;20412;-78
2022/02/06 00:43:52;;;;;;;12.63;9.85;;;8.90;96.70;;;;;;4984964;28;20060;-78
2022/02/06 00:46:22;;;;;;;16.20;10.98;;;8.90;96.70;;;;;;4982454;28;20501;-78
2022/02/06 00:48:55;;;;;;;13.82;10.68;;;8.80;96.70;;;;;;4998328;28;20057;-78
2022/02/06 00:53:56;;;;;;;14.30;9.48;;;8.80;96.70;;;;;;4983862;28;20069;-78
2022/02/06 00:56:24;;;;;;;15.15;9.13;;;8.80;96.70;;;;;;4982822;28;20128;-78
2022/02/06 00:58:52;;;;;;;11.27;8.55;;;8.70;96.70;;;;;;4996611;28;20042;-78
2022/02/06 01:01:20;;;;;;;11.52;8.57;;;8.60;96.70;;;;;;4988784;28;20415;-78
2022/02/06 01:03:49;;;;;;;11.18;7.60;;;8.60;96.70;;;;;;4986950;28;20053;-79
2022/02/06 01:06:17;;;;;;;9.50;7.13;;;8.60;96.70;;;;;;4968936;28;20046;-78
2022/02/06 01:08:45;;;;;;;10.10;6.88;;;8.50;96.70;;;;;;5001846;28;20050;-78
2022/02/06 01:11:15;;;;;;;8.98;6.50;;;8.50;96.70;;;;;;4983804;28;20089;-78
2022/02/06 01:14:02;;;;;;;9.88;7.18;;;8.50;96.70;;;;;;4979637;28;20048;-78
2022/02/06 01:16:35;;;;;;;9.20;6.78;;;8.60;96.70;;;;;;4998124;28;20050;-78
2022/02/06 01:19:08;;;;;;;7.90;6.38;;;8.50;96.70;;;;;;5000027;28;20094;-79
2022/02/06 01:24:11;;;;;;;11.45;6.63;;;8.20;96.70;;;;;;4983283;28;20455;-78
2022/02/06 01:26:46;;;;;;;9.00;6.65;;;8.20;96.70;;;;;;4981500;28;20054;-78
2022/02/06 01:32:04;;;;;;;9.30;7.13;;;8.20;96.70;;;;;;4980723;28;20073;-78
2022/02/06 01:39:54;;;;;;;11.73;8.07;;;8.10;96.70;;;;;;4987325;28;20451;-78
2022/02/06 01:42:38;;;;;;;12.68;8.35;;;8.10;96.70;;;;;;5007073;28;20041;-78
2022/02/06 02:18:53;;;;;;;11.05;8.38;;;8.00;96.70;;;;;;5005958;28;20385;-78
2022/02/06 02:21:57;;;;;;;11.88;8.90;;;8.00;96.70;;;;;;5005121;28;20326;-78
2022/02/06 02:32:38;;;;;;;;;;;8.00;96.70;;;;;;5002277;28;20133;-78
2022/02/06 02:43:56;;;;;;;10.07;6.90;;;7.90;96.70;;;;;;5005579;28;20120;-81
2022/02/06 02:46:23;;;;;;;10.88;7.57;;;7.80;96.70;;;;;;5007517;28;20042;-81
2022/02/06 02:48:52;;;;;;;8.05;6.07;;;7.80;96.70;;;;;;5002339;28;20100;-81
2022/02/06 02:51:23;;;;;;;7.22;5.85;;;7.80;96.70;;;;;;5006265;28;20034;-81
2022/02/06 02:53:58;;;;;;;7.15;6.35;;;7.70;96.70;;;;;;4990862;28;20136;-80
2022/02/06 02:56:50;;;;;;;6.80;5.50;;;7.60;96.70;;;;;;5001629;28;20064;-81
2022/02/06 02:59:28;;;;;;;5.95;5.10;;;7.50;96.70;;;;;;4990669;28;20042;-81
2022/02/06 03:01:58;;;;;;;6.78;5.68;;;7.40;96.70;;;;;;4992444;28;20101;-80
2022/02/06 03:04:27;;;;;;;6.68;5.25;;;7.40;96.70;;;;;;5006198;28;20046;-81
2022/02/06 03:06:55;;;;;;;7.28;6.07;;;7.40;96.70;;;;;;5004896;28;20037;-81
2022/02/06 03:09:25;;;;;;;7.32;5.72;;;7.50;96.70;;;;;;5006975;28;20903;-81
2022/02/06 03:11:53;;;;;;;6.55;5.65;;;7.40;96.70;;;;;;5000507;28;20468;-80
2022/02/06 03:14:37;;;;;;;6.32;5.72;;;7.50;96.70;;;;;;4987998;28;20048;-81
2022/02/06 03:17:05;;;;;;;7.60;6.00;;;7.40;96.70;;;;;;4995182;28;20049;-80
2022/02/06 03:19:40;;;;;;;6.57;5.88;;;7.50;96.70;;;;;;5004080;28;20042;-81
2022/02/06 03:22:08;;;;;;;6.13;5.43;;;7.40;96.70;;;;;;5007776;28;20053;-81
2022/02/06 03:24:43;;;;;;;7.50;5.90;;;7.40;96.70;;;;;;5007078;28;20445;-81
2022/02/06 03:27:12;;;;;;;7.65;5.45;;;7.50;96.70;;;;;;5003999;28;20054;-79
2022/02/06 03:29:41;;;;;;;6.57;5.60;;;7.40;96.70;;;;;;5005595;28;20042;-78
2022/02/06 03:32:09;;;;;;;6.32;5.43;;;7.30;96.70;;;;;;4990648;28;20073;-79
2022/02/06 03:34:37;;;;;;;6.30;5.22;;;7.30;96.70;;;;;;5004348;28;20044;-79
2022/02/06 03:37:05;;;;;;;5.75;5.15;;;7.30;96.70;;;;;;4987573;28;20132;-79
2022/02/06 03:39:36;;;;;;;6.40;5.00;;;7.30;96.70;;;;;;4985832;28;20045;-79
2022/02/06 03:42:11;;;;;;;5.65;5.00;;;7.20;96.70;;;;;;5003579;28;20048;-78
2022/02/06 03:44:51;;;;;;;7.10;5.78;;;7.20;96.70;;;;;;4984627;28;20054;-78
2022/02/06 03:47:23;;;;;;;5.97;5.20;;;7.10;96.70;;;;;;5007047;28;20566;-79
2022/02/06 03:49:56;;;;;;;6.57;5.35;;;7.10;96.70;;;;;;4988656;28;20525;-79
2022/02/06 03:52:43;;;;;;;6.15;5.32;;;7.10;96.70;;;;;;5002117;28;20562;-78
2022/02/06 03:55:18;;;;;;;6.68;5.97;;;7.00;96.70;;;;;;4989101;28;20050;-78
2022/02/06 03:57:49;;;;;;;7.32;5.68;;;7.00;96.70;;;;;;5003868;28;20042;-79
2022/02/06 04:00:19;;;;;;;7.22;5.68;;;7.00;96.70;;;;;;4988980;28;20138;-78
2022/02/06 04:02:47;;;;;;;9.10;6.30;;;6.90;96.70;;;;;;5002772;28;20040;-79
2022/02/06 04:05:15;;;;;;;7.68;6.90;;;7.00;96.70;;;;;;4986398;28;20415;-79
2022/02/06 04:07:45;;;;;;;8.77;6.38;;;7.00;96.70;;;;;;4970037;28;20198;-79
2022/02/06 04:10:15;;;;;;;8.82;6.60;;;7.00;96.70;;;;;;5004368;28;20053;-78
2022/02/06 04:12:45;;;;;;;9.00;6.38;;;7.00;96.70;;;;;;5004614;28;20394;-78
2022/02/06 04:15:25;;;;;;;7.72;6.45;;;6.90;96.70;;;;;;4987610;28;20042;-78
2022/02/06 04:18:09;;;;;;;8.60;6.55;;;6.90;96.70;;;;;;5000671;28;20045;-78
2022/02/06 04:20:38;;;;;;;7.90;6.53;;;6.90;96.70;;;;;;4985574;28;20042;-78
2022/02/06 04:23:06;;;;;;;13.00;6.68;;;6.80;96.70;;;;;;4985561;28;20458;-79
2022/02/06 04:25:34;;;;;;;8.10;6.78;;;6.80;96.70;;;;;;4985928;28;20037;-78
2022/02/06 04:28:02;;;;;;;7.82;6.07;;;6.70;96.70;;;;;;5002974;28;20061;-78
2022/02/06 04:30:32;;;;;;;10.35;6.47;;;6.60;96.70;;;;;;5002329;28;20038;-79
2022/02/06 04:33:00;;;;;;;7.80;6.13;;;6.50;96.70;;;;;;5005476;28;20045;-78
2022/02/06 04:35:33;;;;;;;11.43;6.90;;;6.60;96.70;;;;;;4997334;28;20407;-79
2022/02/06 04:38:23;;;;;;;18.38;7.55;;;6.60;96.70;;;;;;5004022;28;20188;-79
2022/02/06 04:41:19;;;;;;;8.25;6.35;;;6.50;96.70;;;;;;4972024;28;20072;-78
2022/02/06 04:44:14;;;;;;;8.60;6.63;;;6.50;96.70;;;;;;4989964;28;20737;-79
2022/02/06 05:15:04;;;;;;;;;;;6.60;96.70;;;;;;5001311;28;20133;-78
2022/02/06 05:28:23;;;;;;;11.82;7.63;;;6.50;96.70;;;;;;5007242;28;20042;-78
2022/02/06 05:31:00;;;;;;;13.27;7.97;;;6.60;96.70;;;;;;5000042;28;20049;-78
2022/02/06 05:33:29;;;;;;;15.50;9.55;;;6.60;96.70;;;;;;4986297;28;20046;-78
2022/02/06 05:35:59;;;;;;;14.27;8.48;;;6.60;96.70;;;;;;5002713;28;20041;-78
2022/02/06 05:38:28;;;;;;;11.88;7.80;;;6.60;96.70;;;;;;5003675;28;20132;-79
2022/02/06 05:40:56;;;;;;;13.32;8.98;;;6.60;96.70;;;;;;5010645;28;20038;-78
2022/02/06 05:43:25;;;;;;;15.40;9.32;;;6.70;96.70;;;;;;4995601;28;20050;-78
2022/02/06 05:45:53;;;;;;;13.95;8.73;;;6.70;96.70;;;;;;4989658;28;20050;-78
2022/02/06 05:48:22;;;;;;;22.25;9.18;;;6.60;96.70;;;;;;4988352;28;20038;-78
2022/02/06 05:50:50;;;;;;;12.07;8.27;;;6.60;96.70;;;;;;5007801;28;20557;-79
2022/02/06 05:53:21;;;;;;;14.43;8.70;;;6.60;96.70;;;;;;4987999;28;20053;-78
2022/02/06 05:55:49;;;;;;;11.85;7.38;;;6.60;96.70;;;;;;5006156;28;20123;-78
2022/02/06 05:58:18;;;;;;;10.20;6.97;;;6.60;96.70;;;;;;5006987;28;20148;-78
2022/02/06 06:00:47;;;;;;;12.25;7.10;;;6.50;96.70;;;;;;5006747;28;20455;-78
2022/02/06 06:03:15;;;;;;;19.13;7.43;;;6.40;96.70;;;;;;4988433;28;20128;-79
2022/02/06 06:05:44;;;;;;;10.07;7.18;;;6.40;96.70;;;;;;4989953;28;20042;-79
2022/02/06 06:08:13;;;;;;;24.40;7.00;;;6.30;96.70;;;;;;5006399;28;20042;-78
2022/02/06 06:10:43;;;;;;;20.35;8.15;;;6.50;96.70;;;;;;5006320;28;20047;-79
2022/02/06 06:13:11;;;;;;;12.27;7.40;;;6.50;96.70;;;;;;5006483;28;20052;-79
2022/02/06 06:15:40;;;;;;;12.20;7.22;;;6.40;96.70;;;;;;4989039;28;20530;-79
2022/02/06 06:18:12;;;;;;;24.30;7.88;;;6.40;96.70;;;;;;4971643;28;20058;-79
2022/02/06 06:20:43;;;;;;;22.35;6.30;;;6.30;96.70;;;;;;5008137;28;20042;-78
2022/02/06 06:23:12;;;;;;;16.80;6.28;;;6.20;96.70;;;;;;4989043;28;20140;-79
2022/02/06 06:25:44;;;;;;;13.35;6.25;;;6.10;96.70;;;;;;4986802;28;20058;-79
2022/02/06 06:28:13;;;;;;;11.80;5.50;;;6.00;96.70;;;;;;4999796;28;20049;-78
2022/02/06 06:30:41;;;;;;;14.32;5.88;;;6.00;96.70;;;;;;5004880;28;20049;-78
2022/02/06 06:33:10;;;;;;;10.05;5.55;;;6.20;96.70;;;;;;4987250;28;20046;-78
2022/02/06 06:35:54;;;;;;;9.70;4.85;;;6.30;96.70;;;;;;5006847;28;20081;-78
2022/02/06 06:38:23;;;;;;;8.73;4.57;;;6.30;96.70;;;;;;5004067;28;20078;-79
2022/02/06 06:40:53;;;;;;;11.00;5.18;;;6.40;96.70;;;;;;4989144;28;20049;-78
2022/02/06 06:43:22;;;;;;;11.75;4.68;;;6.40;96.70;;;;;;4988078;28;20578;-79
2022/02/06 06:45:50;;;;;;;7.22;4.40;;;6.20;96.70;;;;;;5004885;28;20128;-78
2022/02/06 06:48:19;;;;;;;11.98;4.90;;;6.20;96.70;;;;;;5006416;28;20057;-78
2022/02/06 06:50:47;;;;;;;6.35;4.90;;;6.20;96.70;;;;;;5004187;28;20046;-78
2022/02/06 06:53:16;;;;;;;6.85;5.00;;;6.10;96.70;;;;;;5007941;28;20078;-78
2022/02/06 06:55:50;;;;;;;5.03;4.30;;;6.20;96.70;;;;;;4991730;28;20096;-78
2022/02/06 06:58:27;;;;;;;7.85;5.25;;;6.20;96.70;;;;;;4990348;28;20046;-78
2022/02/06 07:03:35;;;;;;;7.43;5.63;;;6.30;96.70;;;;;;4990139;28;20075;-78
2022/02/06 07:06:04;;;;;;;8.45;5.30;;;6.20;96.70;;;;;;5001087;28;20050;-78
2022/02/06 07:08:33;;;;;;;10.45;6.10;;;6.30;96.70;;;;;;4993389;28;20037;-78
2022/02/06 07:11:01;;;;;;;7.43;5.43;;;6.30;96.70;;;;;;4988347;28;20129;-78
2022/02/06 07:13:31;;;;;;;10.30;6.60;;;6.30;96.70;;;;;;4989044;28;20045;-78
2022/02/06 07:16:00;;;;;;;8.95;5.60;;;6.30;96.70;;;;;;4991134;28;20045;-79
2022/02/06 07:18:28;;;;;;;16.08;5.10;;;6.30;96.70;;;;;;5006440;28;20046;-79
2022/02/06 07:20:57;;;;;;;6.25;5.18;;;6.30;96.70;;;;;;5003115;28;20435;-78
2022/02/06 07:23:25;;;;;;;9.35;4.93;;;6.10;96.70;;;;;;5005487;28;20038;-78
2022/02/06 07:25:59;;;;;;;12.38;4.93;;;6.20;96.70;;;;;;4986395;28;20523;-78
2022/02/06 07:28:29;;;;;;;17.90;4.93;;;6.30;96.70;;;;;;5006523;28;21138;-78
2022/02/06 07:31:00;;;;;;;11.70;4.72;;;6.30;96.70;;;;;;4987964;28;20100;-79
2022/02/06 07:33:28;;;;;;;7.50;5.15;;;6.30;96.70;;;;;;4988304;28;20115;-78
2022/02/06 07:35:57;;;;;;;12.52;5.65;;;6.30;96.70;;;;;;5000845;28;20488;-80
2022/02/06 07:38:25;;;;;;;9.18;5.13;;;6.40;96.70;;;;;;4986963;28;20383;-81
2022/02/06 07:40:54;;;;;;;13.05;5.82;;;6.30;96.70;;;;;;5010073;28;20038;-80
2022/02/06 07:43:22;;;;;;;9.60;5.28;;;6.20;96.70;;;;;;4995136;28;20051;-80
2022/02/06 07:45:51;;;;;;;8.48;5.05;;;6.20;96.70;;;;;;5004549;28;20042;-79
2022/02/06 07:48:21;;;;;;;7.90;5.00;;;6.40;96.70;;;;;;4994588;28;20048;-80
2022/02/06 07:50:50;;;;;;;7.60;5.25;;;6.40;96.70;;;;;;4985793;28;20518;-80
2022/02/06 07:53:18;;;;;;;7.72;5.15;;;6.50;96.70;;;;;;5008916;28;20092;-82
2022/02/06 07:55:47;;;;;;;6.15;4.82;;;6.50;96.70;;;;;;5010838;28;21007;-81
2022/02/06 07:58:15;;;;;;;10.43;5.10;;;6.40;96.70;;;;;;4992446;28;20096;-81
2022/02/06 08:00:44;;;;;;;6.47;5.05;;;6.40;96.70;;;;;;5007165;28;20499;-80
2022/02/06 08:03:12;;;;;;;8.63;5.22;;;6.40;96.70;;;;;;4988430;28;20132;-80
2022/02/06 08:05:43;;;;;;;8.63;5.28;;;6.40;96.70;;;;;;4993998;28;20045;-80
2022/02/06 08:08:13;;;;;;;6.88;5.20;;;6.60;96.70;;;;;;5003315;28;20042;-81
2022/02/06 08:10:43;;;;;;;7.05;5.10;;;6.60;96.70;;;;;;4991268;28;20053;-81
2022/02/06 08:13:22;;;;;;;6.90;5.55;;;6.60;96.70;;;;;;4987987;28;20046;-80
2022/02/06 08:15:51;;;;;;;7.30;5.78;;;6.70;96.70;;;;;;4986706;28;20041;-80
2022/02/06 08:18:19;;;;;;;8.23;5.95;;;6.60;96.70;;;;;;5002101;28;20042;-80
2022/02/06 08:20:49;;;;;;;7.43;6.18;;;6.50;96.70;;;;;;5001684;28;20056;-80
2022/02/06 08:23:39;;;;;;;6.82;5.88;;;6.60;96.70;;;;;;5002995;28;20045;-81
2022/02/06 08:26:08;;;;;;;7.40;6.18;;;6.90;96.70;;;;;;5002687;28;20049;-80
2022/02/06 08:28:37;;;;;;;7.13;5.88;;;6.90;96.70;;;;;;4987584;28;20041;-81
2022/02/06 08:31:05;;;;;;;7.88;6.18;;;6.90;96.70;;;;;;5005717;28;20056;-81
2022/02/06 08:33:34;;;;;;;8.40;6.00;;;7.00;96.70;;;;;;5003946;28;20046;-80
2022/02/06 08:36:05;;;;;;;8.25;6.93;;;7.00;96.70;;;;;;4989156;28;20133;-81
2022/02/06 08:38:33;;;;;;;9.20;6.50;;;7.10;96.70;;;;;;4984004;28;20432;-81
2022/02/06 08:41:02;;;;;;;9.27;7.28;;;7.10;96.70;;;;;;4992048;28;20100;-80
2022/02/06 08:43:30;;;;;;;10.68;7.85;;;7.10;96.70;;;;;;4981521;28;20092;-81
2022/02/06 08:46:02;;;;;;;10.27;8.23;;;7.20;96.70;;;;;;4981197;28;20043;-80
2022/02/06 08:48:31;;;;;;;10.98;8.35;;;7.10;96.70;;;;;;5003624;28;20128;-80
2022/02/06 08:51:01;;;;;;;8.93;7.72;;;7.10;96.70;;;;;;4980537;28;20551;-81
2022/02/06 08:53:31;;;;;;;12.27;8.23;;;7.30;96.70;;;;;;4986905;28;20042;-81
2022/02/06 08:55:59;;;;;;;8.60;7.50;;;7.50;96.70;;;;;;4999517;28;20113;-80
2022/02/06 08:58:28;;;;;;;9.32;7.97;;;7.50;96.70;;;;;;4989218;28;20053;-81
2022/02/06 09:00:56;;;;;;;9.13;7.45;;;7.70;96.70;;;;;;4986272;28;20495;-83
2022/02/06 09:03:25;;;;;;;9.68;6.97;;;7.70;96.70;;;;;;4981820;28;20065;-82
2022/02/06 09:05:54;;;;;;;8.10;6.85;;;7.70;96.70;;;;;;4984007;28;20038;-81
2022/02/06 09:08:22;;;;;;;7.70;6.32;;;7.90;96.70;;;;;;4979857;28;20285;-82
2022/02/06 09:10:52;;;;;;;8.18;7.28;;;8.10;96.70;;;;;;4966996;28;20050;-83
2022/02/06 09:13:21;;;;;;;9.75;7.28;;;8.20;96.70;;;;;;5000944;28;20519;-83
2022/02/06 09:15:50;;;;;;;8.95;7.30;;;8.30;96.70;;;;;;5000045;28;20129;-84
2022/02/06 09:18:18;;;;;;;45.97;32.60;;;8.30;96.70;;;;;;4987817;28;20054;-83
2022/02/06 09:20:46;;;;;;;73.70;48.33;;;8.40;96.70;;;;;;4978874;28;20045;-84
2022/02/06 09:23:15;;;;;;;101.53;62.72;;;8.60;96.70;;;;;;4982795;28;20057;-84
2022/02/06 09:25:43;;;;;;;59.40;39.70;;;8.70;96.70;;;;;;4984434;28;20069;-83
2022/02/06 09:28:13;;;;;;;47.97;32.75;;;8.80;96.70;;;;;;4968048;28;20062;-82
2022/02/06 09:30:41;;;;;;;101.28;56.50;;;8.90;96.70;;;;;;4993749;28;20043;-82
2022/02/06 09:35:38;;;;;;;72.50;45.85;;;9.20;96.70;;;;;;4984597;28;20030;-83
2022/02/06 09:38:06;;;;;;;61.00;38.22;;;9.30;96.70;;;;;;4966278;28;20070;-78
2022/02/06 09:40:38;;;;;;;45.92;30.73;;;9.50;96.70;;;;;;4982146;28;20129;-80
2022/02/06 09:43:06;;;;;;;38.97;25.92;;;9.70;96.70;;;;;;5006785;28;20054;-81
2022/02/06 09:45:40;;;;;;;72.07;43.50;;;9.80;96.70;;;;;;4996426;28;20505;-80
2022/02/06 09:48:11;;;;;;;81.63;49.83;;;9.90;96.70;;;;;;4985145;28;20030;-80
2022/02/06 09:50:41;;;;;;;103.38;62.08;;;10.00;96.70;;;;;;4984952;28;20432;-81
2022/02/06 09:53:10;;;;;;;95.20;55.85;;;10.10;96.70;;;;;;4981345;28;20050;-80
2022/02/06 09:55:39;;;;;;;68.53;43.88;;;10.10;96.70;;;;;;4982067;28;20042;-80
2022/02/06 09:58:38;;;;;;;64.43;40.55;;;10.10;96.70;;;;;;4981164;28;20034;-81
2022/02/06 10:01:04;;;;;;;44.15;28.73;;;10.20;96.70;;;;;;4998851;28;20046;-81
2022/02/06 10:03:38;;;;;;;32.78;23.42;;;10.30;96.70;;;;;;4996613;28;20050;-81
2022/02/06 10:06:10;;;;;;;34.63;23.17;;;10.50;96.70;;;;;;4983377;28;20121;-81
2022/02/06 10:08:40;;;;;;;27.58;19.20;;;10.60;96.70;;;;;;5000581;28;20063;-80
2022/02/06 10:11:12;;;;;;;26.27;19.17;;;10.70;96.70;;;;;;4992778;28;20085;-81
2022/02/06 10:13:40;;;;;;;18.10;13.95;;;10.90;96.70;;;;;;4995752;28;20034;-79
2022/02/06 10:16:12;;;;;;;17.10;13.88;;;11.00;96.70;;;;;;4980074;28;20442;-81
2022/02/06 10:18:43;;;;;;;15.05;13.07;;;11.10;96.70;;;;;;4981475;28;20222;-81
2022/02/06 10:21:22;;;;;;;16.65;12.68;;;11.10;96.70;;;;;;4988739;28;20043;-80
2022/02/06 10:24:01;;;;;;;15.98;13.15;;;11.20;96.70;;;;;;4968991;28;20559;-80
2022/02/06 10:26:51;;;;;;;18.48;13.20;;;11.20;96.70;;;;;;5001667;28;20578;-80
2022/02/06 10:31:59;;;;;;;17.33;12.90;;;11.30;96.70;;;;;;5001297;28;20133;-79
2022/02/06 10:34:30;;;;;;;18.60;13.85;;;11.30;96.70;;;;;;4969623;28;20101;-80
2022/02/06 10:37:13;;;;;;;19.17;14.70;;;11.50;96.70;;;;;;4982732;28;20109;-79
2022/02/06 10:39:53;;;;;;;17.38;14.68;;;11.60;96.70;;;;;;4984313;28;20058;-78
2022/02/06 10:42:23;;;;;;;15.43;13.23;;;11.70;96.70;;;;;;4981661;28;20030;-79
2022/02/06 10:45:12;;;;;;;16.73;13.80;;;11.80;96.70;;;;;;4981931;28;20456;-80
2022/02/06 10:47:43;;;;;;;17.77;13.60;;;11.90;96.70;;;;;;4984625;28;20045;-79
2022/02/06 10:50:13;;;;;;;14.90;12.45;;;11.90;96.70;;;;;;5004815;28;20084;-77
2022/02/06 10:52:43;;;;;;;15.07;12.30;;;12.00;96.70;;;;;;4968626;28;20129;-80
2022/02/06 10:55:15;;;;;;;14.68;12.40;;;12.10;96.70;;;;;;4988201;28;20551;-80
2022/02/06 10:57:56;;;;;;;13.98;11.93;;;12.10;96.70;;;;;;4984810;28;20050;-79
2022/02/06 11:00:28;;;;;;;15.23;11.52;;;12.20;96.70;;;;;;4989922;28;20054;-79
2022/02/06 11:03:08;;;;;;;13.38;11.95;;;12.20;96.70;;;;;;4987221;28;20054;-79
2022/02/06 11:05:50;;;;;;;15.43;12.35;;;12.30;96.70;;;;;;4973138;28;20050;-80
2022/02/06 11:08:34;;;;;;;14.07;11.48;;;12.50;96.70;;;;;;4982196;28;20165;-80
2022/02/06 11:11:07;;;;;;;13.30;10.98;;;12.50;96.70;;;;;;4984186;28;20060;-79
2022/02/06 11:13:50;;;;;;;14.82;10.73;;;12.60;96.70;;;;;;4988172;28;20046;-81
2022/02/06 11:16:32;;;;;;;13.45;11.27;;;12.70;96.70;;;;;;4985207;28;20357;-81
2022/02/06 11:19:07;;;;;;;15.82;11.63;;;12.70;96.70;;;;;;4985543;28;20066;-81
2022/02/06 11:21:36;;;;;;;16.05;13.55;;;12.80;96.70;;;;;;4984965;28;20054;-81
2022/02/06 11:24:10;;;;;;;15.52;11.65;;;12.90;96.70;;;;;;4994443;28;20057;-81
2022/02/06 11:26:40;;;;;;;15.77;11.70;;;13.00;96.70;;;;;;4985994;28;20125;-79
2022/02/06 11:29:10;;;;;;;16.42;13.05;;;13.10;96.70;;;;;;5002853;28;20046;-81
2022/02/06 11:31:45;;;;;;;17.50;14.57;;;13.20;96.70;;;;;;4998549;28;20563;-80
2022/02/06 11:34:19;;;;;;;20.45;13.85;;;13.30;96.70;;;;;;4982511;28;20058;-80
2022/02/06 11:45:55;;;;;;;19.48;15.05;;;13.80;96.70;;;;;;4988290;28;20030;-83
2022/02/06 11:48:29;;;;;;;33.00;23.55;;;13.90;96.70;;;;;;4984959;28;20557;-82
2022/02/06 11:50:59;;;;;;;43.15;30.33;;;13.90;96.70;;;;;;4984541;28;20046;-82
2022/02/06 11:53:42;;;;;;;22.98;17.92;;;14.00;96.70;;;;;;4999435;28;20124;-82
2022/02/06 11:56:22;;;;;;;33.42;24.60;;;14.10;96.70;;;;;;4984597;28;20274;-84
2022/02/06 11:58:51;;;;;;;19.80;16.00;;;14.30;96.70;;;;;;4983729;28;20074;-83
2022/02/06 12:01:21;;;;;;;20.33;16.23;;;14.40;96.70;;;;;;4985085;28;20050;-81
2022/02/06 12:03:52;;;;;;;16.10;13.77;;;14.40;96.70;;;;;;5006725;28;20050;-79
2022/02/06 12:06:27;;;;;;;18.17;13.82;;;14.60;96.70;;;;;;4982471;28;20452;-80
2022/02/06 12:09:20;;;;;;;15.55;11.90;;;14.70;96.70;;;;;;4996262;28;20050;-81
2022/02/06 12:12:21;;;;;;;17.58;12.45;;;14.80;96.70;;;;;;5000482;28;20050;-80
2022/02/06 12:15:19;;;;;;;15.48;11.35;;;14.80;96.70;;;;;;4983273;28;20050;-83
2022/02/06 12:18:08;;;;;;;14.93;12.48;;;14.60;96.70;;;;;;4984768;28;20058;-82
2022/02/06 12:20:47;;;;;;;15.13;11.50;;;14.50;96.70;;;;;;4971957;28;20556;-81
2022/02/06 12:23:40;;;;;;;15.52;13.77;;;14.40;96.70;;;;;;4980930;28;20066;-81
2022/02/06 12:26:41;;;;;;;16.13;14.10;;;14.50;96.70;;;;;;4985106;28;20062;-80
2022/02/06 12:29:21;;;;;;;21.23;17.27;;;14.80;96.70;;;;;;4968675;28;20038;-81
2022/02/06 12:31:57;;;;;;;13.77;10.10;;;15.00;96.70;;;;;;4971814;28;20054;-81
2022/02/06 12:37:41;;;;;;;12.20;9.85;;;15.30;96.70;;;;;;4995150;28;20057;-82
2022/02/06 12:40:14;;;;;;;11.90;10.52;;;15.40;96.70;;;;;;5003492;28;20124;-80
2022/02/06 12:42:46;;;;;;;12.45;9.27;;;15.50;96.70;;;;;;4990263;28;20546;-80
2022/02/06 12:45:17;;;;;;;10.80;8.55;;;15.60;96.70;;;;;;5004585;28;20029;-82
2022/02/06 12:47:48;;;;;;;10.38;7.93;;;15.70;96.70;;;;;;5003419;28;20104;-83
2022/02/06 12:50:22;;;;;;;8.57;6.70;;;15.80;96.70;;;;;;5005848;28;20425;-83
2022/02/06 12:52:53;;;;;;;7.63;5.82;;;15.90;96.70;;;;;;4982797;28;20096;-82
2022/02/06 12:55:27;;;;;;;8.95;7.00;;;16.00;96.70;;;;;;4993304;28;20046;-84
2022/02/06 12:57:57;;;;;;;8.60;6.28;;;16.10;96.70;;;;;;5001481;28;20041;-81
2022/02/06 13:00:39;;;;;;;8.80;5.78;;;15.80;96.70;;;;;;5001953;28;20100;-79
2022/02/06 13:03:21;;;;;;;7.95;5.90;;;15.60;96.70;;;;;;4999753;28;20042;-81
2022/02/06 13:06:00;;;;;;;9.45;5.32;;;15.30;96.70;;;;;;4984293;28;20049;-80
2022/02/06 13:08:29;;;;;;;6.50;3.92;;;15.30;96.70;;;;;;5000793;28;20037;-81
2022/02/06 13:11:04;;;;;;;7.72;3.63;;;15.40;96.70;;;;;;4971681;28;20148;-81
2022/02/06 13:21:44;;;;;;;5.10;3.25;;;15.10;96.70;;;;;;5007477;28;20045;-82
2022/02/06 13:24:40;;;;;;;9.25;4.20;;;15.00;96.70;;;;;;4986721;28;20050;-80
2022/02/06 13:27:39;;;;;;;5.00;2.95;;;14.90;96.70;;;;;;5003470;28;20037;-84
2022/02/06 13:30:30;;;;;;;9.13;2.85;;;14.80;96.70;;;;;;4981166;28;20246;-82
2022/02/06 13:33:32;;;;;;;6.18;3.47;;;14.70;96.70;;;;;;5000783;28;20084;-82
2022/02/06 13:36:14;;;;;;;6.40;3.03;;;14.60;96.70;;;;;;4983550;28;20042;-82
2022/02/06 13:38:43;;;;;;;6.30;3.53;;;14.60;96.70;;;;;;4984453;28;20044;-80
2022/02/06 13:41:13;;;;;;;5.97;3.03;;;14.60;96.70;;;;;;4987742;28;20486;-82
2022/02/06 13:43:43;;;;;;;7.20;3.58;;;14.60;96.70;;;;;;4983393;28;20548;-81
2022/02/06 13:46:17;;;;;;;4.75;2.97;;;14.70;96.70;;;;;;4984206;28;20309;-81
2022/02/06 13:48:51;;;;;;;9.40;4.65;;;14.70;96.70;;;;;;5004870;28;20037;-81
2022/02/06 13:51:25;;;;;;;6.07;3.50;;;14.80;96.70;;;;;;4988603;28;20504;-81
2022/02/06 13:54:02;;;;;;;5.25;3.20;;;14.80;96.70;;;;;;5001331;28;20042;-82
2022/02/06 13:56:37;;;;;;;5.30;2.67;;;14.80;96.70;;;;;;5008137;28;20042;-81
2022/02/06 13:59:18;;;;;;;6.80;3.95;;;14.80;96.70;;;;;;5007754;28;20403;-82
2022/02/06 14:01:55;;;;;;;6.03;3.28;;;14.80;96.70;;;;;;4988984;28;20057;-81
2022/02/06 14:04:27;;;;;;;7.07;3.22;;;15.00;96.70;;;;;;4975426;28;20077;-82
2022/02/06 14:07:06;;;;;;;5.90;3.47;;;14.90;96.70;;;;;;4986624;28;20054;-83
2022/02/06 14:12:20;;;;;;;6.25;3.47;;;14.70;96.70;;;;;;5009228;28;20071;-81
2022/02/06 14:14:52;;;;;;;4.88;3.65;;;14.80;96.70;;;;;;5011301;28;20047;-81
2022/02/06 14:17:48;;;;;;;6.85;3.88;;;14.90;96.70;;;;;;4995188;28;20775;-82
2022/02/06 14:20:23;;;;;;;7.55;3.45;;;15.10;96.70;;;;;;5005583;28;20231;-81
2022/02/06 14:23:02;;;;;;;5.63;3.50;;;15.00;96.70;;;;;;4988458;28;20064;-82
2022/02/06 14:25:36;;;;;;;5.28;2.90;;;14.70;96.70;;;;;;4995698;28;20053;-77
2022/02/06 14:28:18;;;;;;;7.47;2.92;;;14.60;96.70;;;;;;4983978;28;20100;-78
2022/02/06 14:30:49;;;;;;;5.22;3.00;;;14.70;96.70;;;;;;4989502;28;20042;-78
2022/02/06 14:33:22;;;;;;;8.93;3.58;;;14.80;96.70;;;;;;5003657;28;20053;-79
2022/02/06 14:35:57;;;;;;;8.98;2.97;;;14.80;96.70;;;;;;5003223;28;20042;-78
2022/02/06 14:38:35;;;;;;;4.57;2.70;;;14.70;96.70;;;;;;4966195;28;20046;-78
2022/02/06 14:43:52;;;;;;;5.55;2.65;;;14.50;96.70;;;;;;4982472;28;20046;-77
2022/02/06 14:46:23;;;;;;;7.93;3.28;;;14.30;96.70;;;;;;4998339;28;20257;-78
2022/02/06 14:48:52;;;;;;;6.88;2.80;;;14.20;96.70;;;;;;5000773;28;20077;-77
2022/02/06 14:51:24;;;;;;;4.75;2.90;;;14.20;96.70;;;;;;4988420;28;20046;-79
2022/02/06 14:53:59;;;;;;;9.77;3.60;;;14.20;96.70;;;;;;4986310;28;20055;-79
2022/02/06 14:56:27;;;;;;;5.95;3.20;;;14.20;96.70;;;;;;4985332;28;20103;-78
2022/02/06 14:58:56;;;;;;;8.20;2.95;;;14.20;96.70;;;;;;4985307;28;20077;-79
2022/02/06 15:01:26;;;;;;;7.88;3.50;;;14.20;96.70;;;;;;4984989;28;20061;-78
2022/02/06 15:03:55;;;;;;;6.70;3.22;;;14.20;96.70;;;;;;4991014;28;20053;-78
2022/02/06 15:06:23;;;;;;;6.13;2.70;;;14.20;96.70;;;;;;4984291;28;20453;-78
2022/02/06 15:08:53;;;;;;;9.75;3.20;;;14.30;96.70;;;;;;4993075;28;20054;-79
2022/02/06 15:11:21;;;;;;;4.47;2.00;;;14.30;96.70;;;;;;4983609;28;20034;-79
2022/02/06 15:13:50;;;;;;;5.18;1.60;;;14.30;96.70;;;;;;5003312;28;20118;-79
2022/02/06 15:16:24;;;;;;;3.28;1.73;;;14.20;96.70;;;;;;4985193;28;20093;-78
2022/02/06 15:19:12;;;;;;;5.30;2.63;;;14.20;96.70;;;;;;4972869;28;20050;-76
2022/02/06 15:21:41;;;;;;;5.25;2.10;;;14.20;96.70;;;;;;4999838;28;20049;-77
2022/02/06 15:24:12;;;;;;;5.82;2.10;;;14.10;96.70;;;;;;4999370;28;20038;-76
2022/02/06 15:26:41;;;;;;;5.72;2.35;;;14.00;96.70;;;;;;4975542;28;20069;-76
2022/02/06 15:29:09;;;;;;;9.25;2.22;;;13.90;96.70;;;;;;4979613;28;20039;-76
2022/02/06 15:31:38;;;;;;;6.03;2.42;;;13.90;96.70;;;;;;4986941;28;20589;-77
2022/02/06 15:34:18;;;;;;;5.22;2.80;;;13.80;96.70;;;;;;4981978;28;20042;-77
2022/02/06 15:36:51;;;;;;;7.07;3.08;;;13.80;96.70;;;;;;4979936;28;20126;-77
2022/02/06 15:39:25;;;;;;;9.57;3.13;;;13.70;96.70;;;;;;4982143;28;20038;-78
2022/02/06 15:41:55;;;;;;;6.05;3.20;;;13.70;96.70;;;;;;4997329;28;20633;-78